sensor_id;sensor_type;location;lat;lon;timestamp;P1;durP1;ratioP1;P2;durP2;ratioP2
10244;SDS011;5167;52.164;10.530;2023-05-23T00:00:40;20.80;;;14.98;;
10244;SDS011;5167;52.164;10.530;2023-05-23T00:03:06;19.23;;;14.98;;
10244;SDS011;5167;52.164;10.530;2023-05-23T00:05:33;20.25;;;15.10;;
10244;SDS011;5167;52.164;10.530;2023-05-23T00:07:59;23.77;;;15.73;;
10244;SDS011;5167;52.164;10.530;2023-05-23T00:10:25;21.85;;;14.68;;
10244;SDS011;5167;52.164;10.530;2023-05-23T00:12:50;25.00;;;15.93;;
10244;SDS011;5167;52.164;10.530;2023-05-23T00:15:16;22.05;;;15.48;;
10244;SDS011;5167;52.164;10.530;2023-05-23T00:17:42;20.50;;;14.63;;
10244;SDS011;5167;52.164;10.530;2023-05-23T00:20:08;22.52;;;14.82;;
10244;SDS011;5167;52.164;10.530;2023-05-23T00:22:36;20.98;;;14.85;;
10244;SDS011;5167;52.164;10.530;2023-05-23T00:25:07;22.17;;;14.65;;
10244;SDS011;5167;52.164;10.530;2023-05-23T00:27:33;18.58;;;14.82;;
10244;SDS011;5167;52.164;10.530;2023-05-23T00:29:59;21.17;;;15.15;;
10244;SDS011;5167;52.164;10.530;2023-05-23T00:32:25;18.80;;;14.32;;
10244;SDS011;5167;52.164;10.530;2023-05-23T00:34:50;21.65;;;14.57;;
10244;SDS011;5167;52.164;10.530;2023-05-23T00:37:18;22.60;;;14.75;;
10244;SDS011;5167;52.164;10.530;2023-05-23T00:39:44;23.25;;;14.82;;
10244;SDS011;5167;52.164;10.530;2023-05-23T00:42:09;19.67;;;15.00;;
10244;SDS011;5167;52.164;10.530;2023-05-23T00:44:35;23.23;;;14.25;;
10244;SDS011;5167;52.164;10.530;2023-05-23T00:47:00;19.92;;;13.48;;
10244;SDS011;5167;52.164;10.530;2023-05-23T00:49:26;20.70;;;14.52;;
10244;SDS011;5167;52.164;10.530;2023-05-23T00:51:52;20.17;;;14.38;;
10244;SDS011;5167;52.164;10.530;2023-05-23T00:54:25;23.25;;;13.65;;
10244;SDS011;5167;52.164;10.530;2023-05-23T00:56:53;19.15;;;13.55;;
10244;SDS011;5167;52.164;10.530;2023-05-23T00:59:20;23.52;;;14.73;;
10244;SDS011;5167;52.164;10.530;2023-05-23T01:01:47;23.13;;;14.85;;
10244;SDS011;5167;52.164;10.530;2023-05-23T01:04:14;18.52;;;12.82;;
10244;SDS011;5167;52.164;10.530;2023-05-23T01:06:40;21.35;;;14.07;;
10244;SDS011;5167;52.164;10.530;2023-05-23T01:09:11;20.00;;;14.13;;
10244;SDS011;5167;52.164;10.530;2023-05-23T01:14:46;25.63;;;14.65;;
10244;SDS011;5167;52.164;10.530;2023-05-23T01:17:20;26.25;;;16.52;;
10244;SDS011;5167;52.164;10.530;2023-05-23T01:20:10;28.50;;;17.85;;
10244;SDS011;5167;52.164;10.530;2023-05-23T01:25:27;25.65;;;17.35;;
10244;SDS011;5167;52.164;10.530;2023-05-23T01:28:25;25.00;;;17.10;;
10244;SDS011;5167;52.164;10.530;2023-05-23T01:30:56;24.75;;;16.52;;
10244;SDS011;5167;52.164;10.530;2023-05-23T01:33:22;24.88;;;15.85;;
10244;SDS011;5167;52.164;10.530;2023-05-23T01:35:50;30.10;;;18.83;;
10244;SDS011;5167;52.164;10.530;2023-05-23T01:38:16;25.77;;;16.65;;
10244;SDS011;5167;52.164;10.530;2023-05-23T01:40:41;27.40;;;15.93;;
10244;SDS011;5167;52.164;10.530;2023-05-23T01:43:07;25.98;;;16.83;;
10244;SDS011;5167;52.164;10.530;2023-05-23T01:45:32;23.25;;;15.73;;
10244;SDS011;5167;52.164;10.530;2023-05-23T01:47:59;28.67;;;17.23;;
10244;SDS011;5167;52.164;10.530;2023-05-23T01:50:26;25.42;;;16.13;;
10244;SDS011;5167;52.164;10.530;2023-05-23T01:52:52;27.92;;;17.83;;
10244;SDS011;5167;52.164;10.530;2023-05-23T01:55:19;25.98;;;17.58;;
10244;SDS011;5167;52.164;10.530;2023-05-23T01:57:50;31.52;;;17.83;;
10244;SDS011;5167;52.164;10.530;2023-05-23T02:00:17;30.65;;;17.90;;
10244;SDS011;5167;52.164;10.530;2023-05-23T02:02:43;28.77;;;17.13;;
10244;SDS011;5167;52.164;10.530;2023-05-23T02:05:09;25.95;;;15.88;;
10244;SDS011;5167;52.164;10.530;2023-05-23T02:07:35;26.05;;;16.48;;
10244;SDS011;5167;52.164;10.530;2023-05-23T02:10:02;25.20;;;17.83;;
10244;SDS011;5167;52.164;10.530;2023-05-23T02:12:28;23.17;;;16.45;;
10244;SDS011;5167;52.164;10.530;2023-05-23T02:14:53;24.38;;;16.10;;
10244;SDS011;5167;52.164;10.530;2023-05-23T02:17:19;26.17;;;16.48;;
10244;SDS011;5167;52.164;10.530;2023-05-23T02:19:46;25.88;;;16.08;;
10244;SDS011;5167;52.164;10.530;2023-05-23T02:22:12;26.63;;;16.90;;
10244;SDS011;5167;52.164;10.530;2023-05-23T02:24:37;24.50;;;15.45;;
10244;SDS011;5167;52.164;10.530;2023-05-23T02:27:03;25.65;;;15.98;;
10244;SDS011;5167;52.164;10.530;2023-05-23T02:29:29;25.40;;;16.55;;
10244;SDS011;5167;52.164;10.530;2023-05-23T02:31:54;23.35;;;15.77;;
10244;SDS011;5167;52.164;10.530;2023-05-23T02:34:20;27.52;;;16.50;;
10244;SDS011;5167;52.164;10.530;2023-05-23T02:36:45;31.48;;;19.30;;
10244;SDS011;5167;52.164;10.530;2023-05-23T02:39:11;38.80;;;22.15;;
10244;SDS011;5167;52.164;10.530;2023-05-23T02:41:37;46.78;;;25.80;;
10244;SDS011;5167;52.164;10.530;2023-05-23T02:44:02;55.58;;;30.58;;
10244;SDS011;5167;52.164;10.530;2023-05-23T02:46:27;54.08;;;31.45;;
10244;SDS011;5167;52.164;10.530;2023-05-23T02:48:53;60.38;;;32.78;;
10244;SDS011;5167;52.164;10.530;2023-05-23T02:51:18;65.57;;;34.42;;
10244;SDS011;5167;52.164;10.530;2023-05-23T02:53:44;66.05;;;33.53;;
10244;SDS011;5167;52.164;10.530;2023-05-23T02:56:10;65.85;;;34.72;;
10244;SDS011;5167;52.164;10.530;2023-05-23T02:58:37;60.25;;;34.08;;
10244;SDS011;5167;52.164;10.530;2023-05-23T03:01:03;62.85;;;32.88;;
10244;SDS011;5167;52.164;10.530;2023-05-23T03:03:30;55.88;;;30.30;;
10244;SDS011;5167;52.164;10.530;2023-05-23T03:05:59;52.55;;;28.95;;
10244;SDS011;5167;52.164;10.530;2023-05-23T03:08:25;54.15;;;28.98;;
10244;SDS011;5167;52.164;10.530;2023-05-23T03:10:51;52.30;;;28.00;;
10244;SDS011;5167;52.164;10.530;2023-05-23T03:13:17;54.60;;;27.60;;
10244;SDS011;5167;52.164;10.530;2023-05-23T03:15:42;53.90;;;27.73;;
10244;SDS011;5167;52.164;10.530;2023-05-23T03:18:08;51.67;;;27.95;;
10244;SDS011;5167;52.164;10.530;2023-05-23T03:20:35;52.00;;;26.13;;
10244;SDS011;5167;52.164;10.530;2023-05-23T03:23:00;41.85;;;24.67;;
10244;SDS011;5167;52.164;10.530;2023-05-23T03:25:26;47.80;;;24.30;;
10244;SDS011;5167;52.164;10.530;2023-05-23T03:27:51;43.83;;;22.02;;
10244;SDS011;5167;52.164;10.530;2023-05-23T03:30:17;36.53;;;20.35;;
10244;SDS011;5167;52.164;10.530;2023-05-23T03:32:44;33.35;;;19.67;;
10244;SDS011;5167;52.164;10.530;2023-05-23T03:35:10;32.55;;;18.95;;
10244;SDS011;5167;52.164;10.530;2023-05-23T03:37:36;29.13;;;17.25;;
10244;SDS011;5167;52.164;10.530;2023-05-23T03:40:01;28.23;;;17.50;;
10244;SDS011;5167;52.164;10.530;2023-05-23T03:42:27;26.00;;;17.42;;
10244;SDS011;5167;52.164;10.530;2023-05-23T03:44:54;31.38;;;17.73;;
10244;SDS011;5167;52.164;10.530;2023-05-23T03:47:19;29.35;;;16.17;;
10244;SDS011;5167;52.164;10.530;2023-05-23T03:49:45;29.70;;;17.50;;
10244;SDS011;5167;52.164;10.530;2023-05-23T03:52:10;25.92;;;16.10;;
10244;SDS011;5167;52.164;10.530;2023-05-23T03:54:36;23.38;;;15.27;;
10244;SDS011;5167;52.164;10.530;2023-05-23T03:57:01;23.70;;;14.88;;
10244;SDS011;5167;52.164;10.530;2023-05-23T03:59:27;23.20;;;14.50;;
10244;SDS011;5167;52.164;10.530;2023-05-23T04:01:53;25.33;;;14.50;;
10244;SDS011;5167;52.164;10.530;2023-05-23T04:04:19;25.73;;;13.85;;
10244;SDS011;5167;52.164;10.530;2023-05-23T04:06:45;23.65;;;13.35;;
10244;SDS011;5167;52.164;10.530;2023-05-23T04:09:11;19.80;;;12.75;;
10244;SDS011;5167;52.164;10.530;2023-05-23T04:11:37;22.48;;;13.30;;
10244;SDS011;5167;52.164;10.530;2023-05-23T04:14:03;20.50;;;13.15;;
10244;SDS011;5167;52.164;10.530;2023-05-23T04:16:28;22.52;;;13.40;;
10244;SDS011;5167;52.164;10.530;2023-05-23T04:18:57;22.73;;;12.43;;
10244;SDS011;5167;52.164;10.530;2023-05-23T04:21:23;21.70;;;12.13;;
10244;SDS011;5167;52.164;10.530;2023-05-23T04:23:48;20.75;;;12.32;;
10244;SDS011;5167;52.164;10.530;2023-05-23T04:26:14;23.20;;;12.48;;
10244;SDS011;5167;52.164;10.530;2023-05-23T04:28:39;19.23;;;11.90;;
10244;SDS011;5167;52.164;10.530;2023-05-23T04:31:07;18.98;;;12.10;;
10244;SDS011;5167;52.164;10.530;2023-05-23T04:33:33;21.55;;;12.45;;
10244;SDS011;5167;52.164;10.530;2023-05-23T04:35:58;20.27;;;11.35;;
10244;SDS011;5167;52.164;10.530;2023-05-23T04:38:24;19.25;;;11.23;;
10244;SDS011;5167;52.164;10.530;2023-05-23T04:40:52;17.08;;;10.85;;
10244;SDS011;5167;52.164;10.530;2023-05-23T04:43:17;19.73;;;11.13;;
10244;SDS011;5167;52.164;10.530;2023-05-23T04:45:44;17.10;;;10.82;;
10244;SDS011;5167;52.164;10.530;2023-05-23T04:48:13;19.88;;;11.27;;
10244;SDS011;5167;52.164;10.530;2023-05-23T04:50:41;21.98;;;11.63;;
10244;SDS011;5167;52.164;10.530;2023-05-23T04:53:06;20.02;;;11.18;;
10244;SDS011;5167;52.164;10.530;2023-05-23T04:55:32;17.92;;;11.13;;
10244;SDS011;5167;52.164;10.530;2023-05-23T04:57:58;24.30;;;12.00;;
10244;SDS011;5167;52.164;10.530;2023-05-23T05:00:24;18.05;;;10.70;;
10244;SDS011;5167;52.164;10.530;2023-05-23T05:02:50;20.77;;;11.55;;
10244;SDS011;5167;52.164;10.530;2023-05-23T05:05:16;22.83;;;11.68;;
10244;SDS011;5167;52.164;10.530;2023-05-23T05:07:41;18.85;;;11.68;;
10244;SDS011;5167;52.164;10.530;2023-05-23T05:10:07;21.80;;;11.57;;
10244;SDS011;5167;52.164;10.530;2023-05-23T05:12:40;19.50;;;11.73;;
10244;SDS011;5167;52.164;10.530;2023-05-23T05:15:10;19.92;;;12.05;;
10244;SDS011;5167;52.164;10.530;2023-05-23T05:17:37;20.75;;;12.95;;
10244;SDS011;5167;52.164;10.530;2023-05-23T05:20:03;19.45;;;11.90;;
10244;SDS011;5167;52.164;10.530;2023-05-23T05:22:34;18.50;;;11.43;;
10244;SDS011;5167;52.164;10.530;2023-05-23T05:25:01;17.40;;;11.00;;
10244;SDS011;5167;52.164;10.530;2023-05-23T05:27:27;15.38;;;10.35;;
10244;SDS011;5167;52.164;10.530;2023-05-23T05:29:53;12.38;;;8.45;;
10244;SDS011;5167;52.164;10.530;2023-05-23T05:32:22;15.10;;;8.15;;
10244;SDS011;5167;52.164;10.530;2023-05-23T05:34:48;15.45;;;8.50;;
10244;SDS011;5167;52.164;10.530;2023-05-23T05:37:14;13.18;;;7.88;;
10244;SDS011;5167;52.164;10.530;2023-05-23T05:39:40;15.38;;;8.13;;
10244;SDS011;5167;52.164;10.530;2023-05-23T05:42:05;13.45;;;8.32;;
10244;SDS011;5167;52.164;10.530;2023-05-23T05:44:31;12.23;;;8.27;;
10244;SDS011;5167;52.164;10.530;2023-05-23T05:46:57;12.20;;;8.35;;
10244;SDS011;5167;52.164;10.530;2023-05-23T05:49:22;13.50;;;9.35;;
10244;SDS011;5167;52.164;10.530;2023-05-23T05:51:47;15.38;;;8.30;;
10244;SDS011;5167;52.164;10.530;2023-05-23T05:54:13;18.08;;;9.13;;
10244;SDS011;5167;52.164;10.530;2023-05-23T05:56:38;16.60;;;8.77;;
10244;SDS011;5167;52.164;10.530;2023-05-23T05:59:06;16.02;;;9.90;;
10244;SDS011;5167;52.164;10.530;2023-05-23T06:01:31;10.77;;;7.60;;
10244;SDS011;5167;52.164;10.530;2023-05-23T06:03:58;11.27;;;8.38;;
10244;SDS011;5167;52.164;10.530;2023-05-23T06:06:24;14.20;;;8.50;;
10244;SDS011;5167;52.164;10.530;2023-05-23T06:08:49;15.05;;;8.48;;
10244;SDS011;5167;52.164;10.530;2023-05-23T06:11:15;14.48;;;8.43;;
10244;SDS011;5167;52.164;10.530;2023-05-23T06:13:40;13.98;;;7.82;;
10244;SDS011;5167;52.164;10.530;2023-05-23T06:16:07;11.85;;;7.22;;
10244;SDS011;5167;52.164;10.530;2023-05-23T06:18:32;15.38;;;9.15;;
10244;SDS011;5167;52.164;10.530;2023-05-23T06:20:58;13.07;;;8.05;;
10244;SDS011;5167;52.164;10.530;2023-05-23T06:23:24;14.63;;;9.05;;
10244;SDS011;5167;52.164;10.530;2023-05-23T06:25:49;13.25;;;7.82;;
10244;SDS011;5167;52.164;10.530;2023-05-23T06:28:15;12.75;;;8.93;;
10244;SDS011;5167;52.164;10.530;2023-05-23T06:30:40;12.90;;;8.07;;
10244;SDS011;5167;52.164;10.530;2023-05-23T06:33:06;11.98;;;7.18;;
10244;SDS011;5167;52.164;10.530;2023-05-23T06:35:31;12.25;;;6.90;;
10244;SDS011;5167;52.164;10.530;2023-05-23T06:37:57;10.95;;;6.85;;
10244;SDS011;5167;52.164;10.530;2023-05-23T06:40:22;12.80;;;7.60;;
10244;SDS011;5167;52.164;10.530;2023-05-23T06:42:48;10.20;;;6.47;;
10244;SDS011;5167;52.164;10.530;2023-05-23T06:45:13;10.88;;;7.13;;
10244;SDS011;5167;52.164;10.530;2023-05-23T06:47:39;11.85;;;7.65;;
10244;SDS011;5167;52.164;10.530;2023-05-23T06:50:07;12.15;;;6.80;;
10244;SDS011;5167;52.164;10.530;2023-05-23T06:52:33;10.52;;;6.43;;
10244;SDS011;5167;52.164;10.530;2023-05-23T06:54:59;11.30;;;6.63;;
10244;SDS011;5167;52.164;10.530;2023-05-23T06:57:24;11.50;;;6.90;;
10244;SDS011;5167;52.164;10.530;2023-05-23T06:59:49;9.55;;;6.75;;
10244;SDS011;5167;52.164;10.530;2023-05-23T07:02:15;9.32;;;6.38;;
10244;SDS011;5167;52.164;10.530;2023-05-23T07:04:40;9.52;;;5.70;;
10244;SDS011;5167;52.164;10.530;2023-05-23T07:07:06;8.82;;;6.03;;
10244;SDS011;5167;52.164;10.530;2023-05-23T07:09:31;9.15;;;6.32;;
10244;SDS011;5167;52.164;10.530;2023-05-23T07:11:57;8.80;;;6.78;;
10244;SDS011;5167;52.164;10.530;2023-05-23T07:14:22;7.97;;;6.00;;
10244;SDS011;5167;52.164;10.530;2023-05-23T07:16:48;10.95;;;6.15;;
10244;SDS011;5167;52.164;10.530;2023-05-23T07:19:13;8.95;;;5.75;;
10244;SDS011;5167;52.164;10.530;2023-05-23T07:21:39;7.93;;;5.10;;
10244;SDS011;5167;52.164;10.530;2023-05-23T07:24:04;9.38;;;5.82;;
10244;SDS011;5167;52.164;10.530;2023-05-23T07:26:30;7.90;;;5.95;;
10244;SDS011;5167;52.164;10.530;2023-05-23T07:28:56;7.85;;;5.90;;
10244;SDS011;5167;52.164;10.530;2023-05-23T07:31:23;6.85;;;5.70;;
10244;SDS011;5167;52.164;10.530;2023-05-23T07:33:49;6.53;;;5.32;;
10244;SDS011;5167;52.164;10.530;2023-05-23T07:36:18;7.05;;;5.20;;
10244;SDS011;5167;52.164;10.530;2023-05-23T07:38:44;7.05;;;5.80;;
10244;SDS011;5167;52.164;10.530;2023-05-23T07:41:10;8.70;;;5.18;;
10244;SDS011;5167;52.164;10.530;2023-05-23T07:43:36;7.03;;;5.57;;
10244;SDS011;5167;52.164;10.530;2023-05-23T07:46:01;5.63;;;4.68;;
10244;SDS011;5167;52.164;10.530;2023-05-23T07:48:27;6.82;;;4.45;;
10244;SDS011;5167;52.164;10.530;2023-05-23T07:50:52;4.70;;;4.20;;
10244;SDS011;5167;52.164;10.530;2023-05-23T07:53:21;5.65;;;4.68;;
10244;SDS011;5167;52.164;10.530;2023-05-23T07:55:46;7.05;;;4.97;;
10244;SDS011;5167;52.164;10.530;2023-05-23T07:58:12;4.25;;;3.85;;
10244;SDS011;5167;52.164;10.530;2023-05-23T08:00:37;5.78;;;4.65;;
10244;SDS011;5167;52.164;10.530;2023-05-23T08:03:05;4.85;;;4.28;;
10244;SDS011;5167;52.164;10.530;2023-05-23T08:05:31;7.95;;;5.63;;
10244;SDS011;5167;52.164;10.530;2023-05-23T08:07:56;6.93;;;5.00;;
10244;SDS011;5167;52.164;10.530;2023-05-23T08:10:22;7.72;;;5.15;;
10244;SDS011;5167;52.164;10.530;2023-05-23T08:12:47;5.65;;;5.07;;
10244;SDS011;5167;52.164;10.530;2023-05-23T08:15:13;9.75;;;5.28;;
10244;SDS011;5167;52.164;10.530;2023-05-23T08:17:38;6.57;;;5.43;;
10244;SDS011;5167;52.164;10.530;2023-05-23T08:20:04;6.88;;;5.28;;
10244;SDS011;5167;52.164;10.530;2023-05-23T08:22:30;5.95;;;4.88;;
10244;SDS011;5167;52.164;10.530;2023-05-23T08:24:56;7.65;;;5.32;;
10244;SDS011;5167;52.164;10.530;2023-05-23T08:27:21;8.50;;;5.53;;
10244;SDS011;5167;52.164;10.530;2023-05-23T08:29:47;9.25;;;5.40;;
10244;SDS011;5167;52.164;10.530;2023-05-23T08:32:13;6.18;;;5.10;;
10244;SDS011;5167;52.164;10.530;2023-05-23T08:34:39;7.03;;;5.60;;
10244;SDS011;5167;52.164;10.530;2023-05-23T08:37:04;6.78;;;5.30;;
10244;SDS011;5167;52.164;10.530;2023-05-23T08:39:30;7.55;;;5.97;;
10244;SDS011;5167;52.164;10.530;2023-05-23T08:41:56;7.47;;;5.88;;
10244;SDS011;5167;52.164;10.530;2023-05-23T08:44:21;7.53;;;6.38;;
10244;SDS011;5167;52.164;10.530;2023-05-23T08:46:47;8.20;;;6.80;;
10244;SDS011;5167;52.164;10.530;2023-05-23T08:49:17;8.02;;;6.25;;
10244;SDS011;5167;52.164;10.530;2023-05-23T08:51:42;7.28;;;5.88;;
10244;SDS011;5167;52.164;10.530;2023-05-23T08:54:09;9.10;;;6.82;;
10244;SDS011;5167;52.164;10.530;2023-05-23T08:56:37;7.30;;;6.28;;
10244;SDS011;5167;52.164;10.530;2023-05-23T08:59:02;8.13;;;6.05;;
10244;SDS011;5167;52.164;10.530;2023-05-23T09:01:28;11.43;;;6.47;;
10244;SDS011;5167;52.164;10.530;2023-05-23T09:03:55;11.40;;;7.47;;
10244;SDS011;5167;52.164;10.530;2023-05-23T09:06:24;11.63;;;7.85;;
10244;SDS011;5167;52.164;10.530;2023-05-23T09:08:49;12.10;;;8.18;;
10244;SDS011;5167;52.164;10.530;2023-05-23T09:11:15;12.32;;;7.80;;
10244;SDS011;5167;52.164;10.530;2023-05-23T09:13:41;11.38;;;8.45;;
10244;SDS011;5167;52.164;10.530;2023-05-23T09:16:08;17.40;;;10.45;;
10244;SDS011;5167;52.164;10.530;2023-05-23T09:18:38;14.25;;;9.30;;
10244;SDS011;5167;52.164;10.530;2023-05-23T09:21:06;15.18;;;8.95;;
10244;SDS011;5167;52.164;10.530;2023-05-23T09:23:33;12.50;;;9.20;;
10244;SDS011;5167;52.164;10.530;2023-05-23T09:26:03;15.23;;;9.25;;
10244;SDS011;5167;52.164;10.530;2023-05-23T09:28:30;14.68;;;9.70;;
10244;SDS011;5167;52.164;10.530;2023-05-23T09:30:59;14.68;;;8.25;;
10244;SDS011;5167;52.164;10.530;2023-05-23T09:33:32;13.35;;;8.52;;
10244;SDS011;5167;52.164;10.530;2023-05-23T09:36:05;13.75;;;9.15;;
10244;SDS011;5167;52.164;10.530;2023-05-23T09:38:31;11.70;;;7.97;;
10244;SDS011;5167;52.164;10.530;2023-05-23T09:41:01;12.85;;;7.97;;
10244;SDS011;5167;52.164;10.530;2023-05-23T09:43:28;9.25;;;7.18;;
10244;SDS011;5167;52.164;10.530;2023-05-23T09:45:54;11.95;;;7.18;;
10244;SDS011;5167;52.164;10.530;2023-05-23T09:48:22;11.95;;;7.60;;
10244;SDS011;5167;52.164;10.530;2023-05-23T09:50:53;10.48;;;7.18;;
10244;SDS011;5167;52.164;10.530;2023-05-23T09:53:18;8.93;;;7.00;;
10244;SDS011;5167;52.164;10.530;2023-05-23T09:55:45;12.55;;;7.32;;
10244;SDS011;5167;52.164;10.530;2023-05-23T09:58:12;9.02;;;7.00;;
10244;SDS011;5167;52.164;10.530;2023-05-23T10:00:39;9.77;;;6.18;;
10244;SDS011;5167;52.164;10.530;2023-05-23T10:03:09;8.73;;;5.88;;
10244;SDS011;5167;52.164;10.530;2023-05-23T10:08:22;9.98;;;6.65;;
10244;SDS011;5167;52.164;10.530;2023-05-23T10:13:38;16.70;;;9.57;;
10244;SDS011;5167;52.164;10.530;2023-05-23T10:19:02;12.45;;;8.07;;
10244;SDS011;5167;52.164;10.530;2023-05-23T10:21:35;14.40;;;9.93;;
10244;SDS011;5167;52.164;10.530;2023-05-23T10:24:06;14.05;;;8.25;;
10244;SDS011;5167;52.164;10.530;2023-05-23T10:26:32;13.10;;;8.93;;
10244;SDS011;5167;52.164;10.530;2023-05-23T10:28:59;14.43;;;8.95;;
10244;SDS011;5167;52.164;10.530;2023-05-23T10:31:26;11.20;;;7.95;;
10244;SDS011;5167;52.164;10.530;2023-05-23T10:45:20;15.48;;;8.85;;
10244;SDS011;5167;52.164;10.530;2023-05-23T10:47:49;20.63;;;8.98;;
10244;SDS011;5167;52.164;10.530;2023-05-23T10:50:29;16.85;;;9.15;;
10244;SDS011;5167;52.164;10.530;2023-05-23T10:53:02;14.90;;;8.90;;
10244;SDS011;5167;52.164;10.530;2023-05-23T10:55:31;16.83;;;8.80;;
10244;SDS011;5167;52.164;10.530;2023-05-23T10:58:13;13.85;;;8.65;;
10244;SDS011;5167;52.164;10.530;2023-05-23T11:00:55;20.10;;;8.60;;
10244;SDS011;5167;52.164;10.530;2023-05-23T11:03:33;16.38;;;7.57;;
10244;SDS011;5167;52.164;10.530;2023-05-23T11:06:02;16.02;;;7.40;;
10244;SDS011;5167;52.164;10.530;2023-05-23T11:08:37;18.33;;;8.90;;
10244;SDS011;5167;52.164;10.530;2023-05-23T11:11:07;14.82;;;8.45;;
10244;SDS011;5167;52.164;10.530;2023-05-23T11:13:53;19.40;;;8.05;;
10244;SDS011;5167;52.164;10.530;2023-05-23T11:21:43;16.70;;;7.43;;
10244;SDS011;5167;52.164;10.530;2023-05-23T11:24:09;15.10;;;6.88;;
10244;SDS011;5167;52.164;10.530;2023-05-23T11:26:35;15.35;;;7.53;;
10244;SDS011;5167;52.164;10.530;2023-05-23T11:29:01;9.15;;;6.13;;
10244;SDS011;5167;52.164;10.530;2023-05-23T11:31:28;14.52;;;6.32;;
10244;SDS011;5167;52.164;10.530;2023-05-23T11:33:54;13.55;;;6.10;;
10244;SDS011;5167;52.164;10.530;2023-05-23T11:36:20;10.10;;;6.32;;
10244;SDS011;5167;52.164;10.530;2023-05-23T11:38:46;12.60;;;5.20;;
10244;SDS011;5167;52.164;10.530;2023-05-23T11:41:16;9.75;;;6.15;;
10244;SDS011;5167;52.164;10.530;2023-05-23T11:43:52;9.32;;;5.53;;
10244;SDS011;5167;52.164;10.530;2023-05-23T11:46:17;10.68;;;4.88;;
10244;SDS011;5167;52.164;10.530;2023-05-23T11:48:44;10.77;;;4.47;;
10244;SDS011;5167;52.164;10.530;2023-05-23T11:51:10;9.23;;;4.50;;
10244;SDS011;5167;52.164;10.530;2023-05-23T11:53:35;9.32;;;4.07;;
10244;SDS011;5167;52.164;10.530;2023-05-23T11:56:01;7.03;;;4.45;;
10244;SDS011;5167;52.164;10.530;2023-05-23T11:58:30;8.23;;;4.38;;
10244;SDS011;5167;52.164;10.530;2023-05-23T12:01:02;8.07;;;4.28;;
10244;SDS011;5167;52.164;10.530;2023-05-23T12:03:48;11.45;;;4.38;;
10244;SDS011;5167;52.164;10.530;2023-05-23T12:06:17;9.75;;;4.72;;
10244;SDS011;5167;52.164;10.530;2023-05-23T12:08:43;9.70;;;4.53;;
10244;SDS011;5167;52.164;10.530;2023-05-23T12:11:10;8.48;;;4.05;;
10244;SDS011;5167;52.164;10.530;2023-05-23T12:13:39;9.00;;;4.10;;
10244;SDS011;5167;52.164;10.530;2023-05-23T12:16:06;13.60;;;4.60;;
10244;SDS011;5167;52.164;10.530;2023-05-23T12:18:31;10.57;;;4.45;;
10244;SDS011;5167;52.164;10.530;2023-05-23T12:21:00;15.23;;;4.50;;
10244;SDS011;5167;52.164;10.530;2023-05-23T12:23:27;11.07;;;4.75;;
10244;SDS011;5167;52.164;10.530;2023-05-23T12:25:54;13.52;;;4.32;;
10244;SDS011;5167;52.164;10.530;2023-05-23T12:28:21;10.65;;;4.60;;
10244;SDS011;5167;52.164;10.530;2023-05-23T12:31:07;15.05;;;5.47;;
10244;SDS011;5167;52.164;10.530;2023-05-23T12:33:39;13.27;;;4.60;;
10244;SDS011;5167;52.164;10.530;2023-05-23T12:36:07;19.33;;;5.35;;
10244;SDS011;5167;52.164;10.530;2023-05-23T12:38:33;15.20;;;4.78;;
10244;SDS011;5167;52.164;10.530;2023-05-23T12:41:17;10.82;;;5.13;;
10244;SDS011;5167;52.164;10.530;2023-05-23T12:43:51;13.55;;;5.05;;
10244;SDS011;5167;52.164;10.530;2023-05-23T12:46:19;8.07;;;5.18;;
10244;SDS011;5167;52.164;10.530;2023-05-23T12:48:45;10.23;;;5.18;;
10244;SDS011;5167;52.164;10.530;2023-05-23T12:51:11;14.70;;;5.15;;
10244;SDS011;5167;52.164;10.530;2023-05-23T12:53:37;14.80;;;6.07;;
10244;SDS011;5167;52.164;10.530;2023-05-23T12:56:03;11.18;;;4.88;;
10244;SDS011;5167;52.164;10.530;2023-05-23T12:58:29;11.63;;;6.45;;
10244;SDS011;5167;52.164;10.530;2023-05-23T13:00:54;16.50;;;6.25;;
10244;SDS011;5167;52.164;10.530;2023-05-23T13:03:20;13.07;;;5.35;;
10244;SDS011;5167;52.164;10.530;2023-05-23T13:05:45;13.50;;;5.15;;
10244;SDS011;5167;52.164;10.530;2023-05-23T13:08:11;14.45;;;5.82;;
10244;SDS011;5167;52.164;10.530;2023-05-23T13:10:37;12.57;;;5.72;;
10244;SDS011;5167;52.164;10.530;2023-05-23T13:13:03;13.30;;;5.75;;
10244;SDS011;5167;52.164;10.530;2023-05-23T13:15:28;14.25;;;5.82;;
10244;SDS011;5167;52.164;10.530;2023-05-23T13:17:54;10.85;;;5.05;;
10244;SDS011;5167;52.164;10.530;2023-05-23T13:20:20;14.80;;;4.85;;
10244;SDS011;5167;52.164;10.530;2023-05-23T13:22:46;11.10;;;5.15;;
10244;SDS011;5167;52.164;10.530;2023-05-23T13:25:12;9.35;;;4.35;;
10244;SDS011;5167;52.164;10.530;2023-05-23T13:27:37;11.05;;;4.47;;
10244;SDS011;5167;52.164;10.530;2023-05-23T13:30:03;11.50;;;4.57;;
10244;SDS011;5167;52.164;10.530;2023-05-23T13:32:29;11.35;;;4.47;;
10244;SDS011;5167;52.164;10.530;2023-05-23T13:34:54;10.65;;;4.75;;
10244;SDS011;5167;52.164;10.530;2023-05-23T13:37:20;13.02;;;4.25;;
10244;SDS011;5167;52.164;10.530;2023-05-23T13:39:45;11.20;;;4.60;;
10244;SDS011;5167;52.164;10.530;2023-05-23T13:42:11;26.70;;;4.20;;
10244;SDS011;5167;52.164;10.530;2023-05-23T13:44:36;12.93;;;4.18;;
10244;SDS011;5167;52.164;10.530;2023-05-23T13:47:09;11.80;;;4.57;;
10244;SDS011;5167;52.164;10.530;2023-05-23T13:49:39;12.43;;;3.90;;
10244;SDS011;5167;52.164;10.530;2023-05-23T13:52:05;13.13;;;4.20;;
10244;SDS011;5167;52.164;10.530;2023-05-23T13:54:31;14.65;;;5.05;;
10244;SDS011;5167;52.164;10.530;2023-05-23T13:56:57;10.93;;;3.40;;
10244;SDS011;5167;52.164;10.530;2023-05-23T13:59:24;9.40;;;3.45;;
10244;SDS011;5167;52.164;10.530;2023-05-23T14:01:50;9.65;;;3.38;;
10244;SDS011;5167;52.164;10.530;2023-05-23T14:04:16;9.35;;;3.65;;
10244;SDS011;5167;52.164;10.530;2023-05-23T14:06:42;11.18;;;3.78;;
10244;SDS011;5167;52.164;10.530;2023-05-23T14:09:07;10.02;;;4.10;;
10244;SDS011;5167;52.164;10.530;2023-05-23T14:11:33;16.15;;;6.20;;
10244;SDS011;5167;52.164;10.530;2023-05-23T14:13:59;10.95;;;4.10;;
10244;SDS011;5167;52.164;10.530;2023-05-23T14:16:24;13.80;;;5.53;;
10244;SDS011;5167;52.164;10.530;2023-05-23T14:18:50;9.57;;;3.88;;
10244;SDS011;5167;52.164;10.530;2023-05-23T14:21:15;15.18;;;4.25;;
10244;SDS011;5167;52.164;10.530;2023-05-23T14:23:41;13.70;;;4.35;;
10244;SDS011;5167;52.164;10.530;2023-05-23T14:26:06;10.60;;;3.50;;
10244;SDS011;5167;52.164;10.530;2023-05-23T14:28:32;11.95;;;4.32;;
10244;SDS011;5167;52.164;10.530;2023-05-23T14:30:57;10.63;;;4.05;;
10244;SDS011;5167;52.164;10.530;2023-05-23T14:33:23;12.32;;;4.82;;
10244;SDS011;5167;52.164;10.530;2023-05-23T14:35:49;8.30;;;3.33;;
10244;SDS011;5167;52.164;10.530;2023-05-23T14:38:15;16.63;;;3.85;;
10244;SDS011;5167;52.164;10.530;2023-05-23T14:40:41;9.75;;;3.22;;
10244;SDS011;5167;52.164;10.530;2023-05-23T14:43:07;12.48;;;3.00;;
10244;SDS011;5167;52.164;10.530;2023-05-23T14:45:33;10.07;;;3.30;;
10244;SDS011;5167;52.164;10.530;2023-05-23T14:47:58;15.75;;;4.35;;
10244;SDS011;5167;52.164;10.530;2023-05-23T14:50:24;13.88;;;3.47;;
10244;SDS011;5167;52.164;10.530;2023-05-23T14:52:50;16.13;;;3.55;;
10244;SDS011;5167;52.164;10.530;2023-05-23T14:55:17;13.60;;;3.67;;
10244;SDS011;5167;52.164;10.530;2023-05-23T14:57:42;12.63;;;3.78;;
10244;SDS011;5167;52.164;10.530;2023-05-23T15:00:08;12.43;;;3.42;;
10244;SDS011;5167;52.164;10.530;2023-05-23T15:02:35;11.30;;;3.88;;